Terminal Aerodrome Forecast
Issued by NWS

Home | Current Version | Previous Version | Text Only | Print | Product List | Glossary On
Versions: 1 2 3 4 5 6 7 8 9 10 11 12 13 14 15 16 17 18 19 20
487
FTUS44 KCRP 241740
TAFLRD
TAF
KLRD 241740Z 2418/2518 19012KT P6SM OVC015
     FM242000 32007KT P6SM BKN100
     FM250200 02009KT P6SM VCSH SCT020 BKN100 PROB30 2508/2512 TSRA
      BKN020CB
     FM251200 36012KT P6SM OVC025=

USA.gov is the U.S. government's official web portal to all federal, state and local government web resources and services.